Time;durP1;ratioP1;P1;durP2;ratioP2;P2;SDS_P1;SDS_P2;PMS_P1;PMS_P2;Temp;Humidity;BMP_temperature;BMP_pressure;BME280_temperature;BME280_humidity;BME280_pressure;Samples;Min_cycle;Max_cycle;Signal;HPM_P1;HPM_P2
2022/12/08 00:02:21;;;;;;;3.42;3.00;;;7.20;77.00;;;;;;5043925;28;20500;-81
2022/12/08 00:10:15;;;;;;;3.40;3.00;;;7.20;77.00;;;;;;5053540;28;20036;-80
2022/12/08 00:12:41;;;;;;;3.88;3.03;;;7.20;77.00;;;;;;5088165;28;20111;-81
2022/12/08 00:15:07;;;;;;;3.83;3.05;;;7.20;77.10;;;;;;5067909;28;20024;-80
2022/12/08 00:17:32;;;;;;;4.05;3.55;;;7.20;77.10;;;;;;5047749;28;20036;-83
2022/12/08 00:19:58;;;;;;;3.53;3.08;;;7.20;77.10;;;;;;5064664;28;20527;-81
2022/12/08 00:22:24;;;;;;;3.67;3.28;;;7.20;77.10;;;;;;5055724;28;20036;-80
2022/12/08 00:24:51;;;;;;;4.63;3.72;;;7.20;77.10;;;;;;5047484;28;20029;-80
2022/12/08 00:27:17;;;;;;;3.83;3.28;;;7.20;77.10;;;;;;5043078;28;20028;-81
2022/12/08 00:29:44;;;;;;;4.38;3.35;;;7.20;77.10;;;;;;5051164;28;20119;-81
2022/12/08 00:32:10;;;;;;;3.17;2.88;;;7.10;77.10;;;;;;5061418;28;20063;-80
2022/12/08 00:34:35;;;;;;;3.55;3.05;;;7.20;77.20;;;;;;5049717;28;20485;-83
2022/12/08 00:37:01;;;;;;;3.58;3.15;;;7.20;77.20;;;;;;5036225;28;20036;-80
2022/12/08 00:39:27;;;;;;;3.60;2.90;;;7.20;77.20;;;;;;5039639;28;20021;-81
2022/12/08 00:42:11;;;;;;;4.07;3.38;;;7.10;77.20;;;;;;5049891;28;20472;-80
2022/12/08 00:44:37;;;;;;;3.58;2.88;;;7.20;77.20;;;;;;5047828;28;20040;-81
2022/12/08 00:47:03;;;;;;;3.78;2.95;;;7.10;77.10;;;;;;5039829;28;20037;-82
2022/12/08 00:49:28;;;;;;;3.45;3.00;;;7.10;77.20;;;;;;5087458;28;20083;-81
2022/12/08 00:51:54;;;;;;;3.47;3.08;;;7.10;77.20;;;;;;5048101;28;20408;-81
2022/12/08 00:54:21;;;;;;;3.40;2.97;;;7.10;77.20;;;;;;5048945;28;20039;-80
2022/12/08 00:56:48;;;;;;;3.50;2.95;;;7.10;77.20;;;;;;5066796;28;20038;-80
2022/12/08 00:59:14;;;;;;;3.90;2.97;;;7.10;77.20;;;;;;5070008;28;20032;-80
2022/12/08 01:01:42;;;;;;;3.22;2.92;;;7.10;77.10;;;;;;5062828;28;20039;-81
2022/12/08 01:04:11;;;;;;;3.47;3.00;;;7.20;77.20;;;;;;5086734;28;20523;-83
2022/12/08 01:06:38;;;;;;;3.88;3.00;;;7.20;77.20;;;;;;5063575;28;20028;-79
2022/12/08 01:09:05;;;;;;;3.72;3.13;;;7.20;77.20;;;;;;5067243;28;20028;-81
2022/12/08 01:11:32;;;;;;;3.55;3.17;;;7.20;77.20;;;;;;5056265;28;20078;-80
2022/12/08 01:13:58;;;;;;;3.10;2.78;;;7.10;77.10;;;;;;5051589;28;20020;-80
2022/12/08 01:16:26;;;;;;;3.08;2.78;;;7.10;77.20;;;;;;5040284;28;20455;-80
2022/12/08 01:18:52;;;;;;;2.60;2.40;;;7.20;77.20;;;;;;5086844;28;20119;-80
2022/12/08 01:21:19;;;;;;;3.20;2.90;;;7.20;77.10;;;;;;5049023;28;20056;-81
2022/12/08 01:23:45;;;;;;;3.60;2.90;;;7.10;77.10;;;;;;5087128;28;20089;-82
2022/12/08 01:26:13;;;;;;;3.22;2.92;;;7.20;77.20;;;;;;5051137;28;20377;-82
2022/12/08 01:28:40;;;;;;;3.28;2.83;;;7.10;77.10;;;;;;5087339;28;20032;-81
2022/12/08 01:31:14;;;;;;;3.22;2.92;;;7.10;77.10;;;;;;5070620;28;20016;-82
2022/12/08 01:33:40;;;;;;;3.47;2.93;;;7.10;77.20;;;;;;5078598;28;20059;-81
2022/12/08 01:36:06;;;;;;;3.40;2.67;;;7.10;77.20;;;;;;5058274;28;20472;-80
2022/12/08 01:38:32;;;;;;;3.75;3.15;;;7.10;77.20;;;;;;5069388;28;20032;-80
2022/12/08 01:40:58;;;;;;;3.67;3.05;;;7.10;77.20;;;;;;5041567;28;20673;-81
2022/12/08 01:43:24;;;;;;;3.35;2.70;;;7.10;77.20;;;;;;5057005;28;20029;-80
2022/12/08 01:45:50;;;;;;;3.63;2.72;;;7.10;77.20;;;;;;5069526;28;20028;-80
2022/12/08 01:48:22;;;;;;;3.58;2.72;;;7.20;77.30;;;;;;5065995;28;20053;-80
2022/12/08 01:50:48;;;;;;;3.17;2.60;;;7.20;77.20;;;;;;5074663;28;20701;-80
2022/12/08 01:53:28;;;;;;;3.28;2.65;;;7.10;77.10;;;;;;5041175;28;20082;-80
2022/12/08 01:56:06;;;;;;;3.60;2.85;;;7.20;77.20;;;;;;5070266;28;20107;-80
2022/12/08 01:58:36;;;;;;;3.75;3.00;;;7.20;77.20;;;;;;5062493;28;20032;-80
2022/12/08 02:01:02;;;;;;;4.13;3.10;;;7.20;77.90;;;;;;5055962;28;20432;-80
2022/12/08 02:03:48;;;;;;;3.50;3.00;;;7.20;77.20;;;;;;5050732;28;20535;-80
2022/12/08 02:06:16;;;;;;;3.35;3.00;;;7.10;77.20;;;;;;5056118;28;20116;-81
2022/12/08 02:08:42;;;;;;;3.78;3.35;;;7.10;77.10;;;;;;5072593;28;20040;-81
2022/12/08 02:11:10;;;;;;;4.75;3.20;;;7.20;77.20;;;;;;5056189;28;20109;-80
2022/12/08 02:13:41;;;;;;;3.85;3.17;;;7.20;77.20;;;;;;5055443;28;20067;-81
2022/12/08 02:16:07;;;;;;;3.60;3.05;;;7.20;77.30;;;;;;5055955;28;20032;-80
2022/12/08 02:18:41;;;;;;;4.00;3.00;;;7.20;77.20;;;;;;5073350;28;20368;-79
2022/12/08 02:21:20;;;;;;;4.10;3.50;;;7.10;77.20;;;;;;5072795;28;20032;-82
2022/12/08 02:24:21;;;;;;;4.15;3.30;;;7.20;77.30;;;;;;5055717;28;20028;-80
2022/12/08 02:27:01;;;;;;;4.20;3.40;;;7.10;77.20;;;;;;4995715;28;20376;-81
2022/12/08 02:29:45;;;;;;;4.25;3.53;;;7.20;77.20;;;;;;5049989;28;20036;-81
2022/12/08 02:32:41;;;;;;;4.03;3.35;;;7.20;77.20;;;;;;5072736;28;20389;-81
2022/12/08 02:35:30;;;;;;;;;;;7.20;77.30;;;;;;5056648;28;20377;-78
2022/12/08 02:38:04;;;;;;;4.10;3.40;;;7.10;77.10;;;;;;4993552;28;19915;-80
2022/12/08 02:40:46;;;;;;;4.20;3.37;;;7.10;77.00;;;;;;5072652;28;20033;-79
2022/12/08 02:43:43;;;;;;;4.30;3.33;;;7.10;77.10;;;;;;5055749;28;20028;-79
2022/12/08 02:46:12;;;;;;;3.72;3.20;;;7.10;77.20;;;;;;5060303;28;20137;-78
2022/12/08 02:48:38;;;;;;;4.18;3.28;;;7.10;77.20;;;;;;5056154;28;20036;-80
2022/12/08 02:51:05;;;;;;;4.00;3.53;;;7.10;77.20;;;;;;5039231;28;20021;-80
2022/12/08 02:53:34;;;;;;;4.15;3.42;;;7.10;77.20;;;;;;5072236;28;20478;-79
2022/12/08 02:56:27;;;;;;;4.90;3.83;;;7.20;77.30;;;;;;5039336;28;20040;-80
2022/12/08 02:59:26;;;;;;;4.13;3.53;;;7.20;77.30;;;;;;5056032;28;20040;-80
2022/12/08 03:02:00;;;;;;;4.60;3.80;;;7.20;77.30;;;;;;5073283;28;20035;-80
2022/12/08 03:04:32;;;;;;;4.10;3.47;;;7.20;77.20;;;;;;5073034;28;20047;-79
2022/12/08 03:07:11;;;;;;;5.07;3.67;;;7.20;77.30;;;;;;5055336;28;20105;-78
2022/12/08 03:10:09;;;;;;;3.88;3.38;;;7.20;77.30;;;;;;5059505;28;20056;-80
2022/12/08 03:12:51;;;;;;;4.55;3.70;;;7.20;77.40;;;;;;5055542;28;20040;-80
2022/12/08 03:15:19;;;;;;;3.80;3.05;;;7.20;77.30;;;;;;5059218;28;20028;-81
2022/12/08 03:17:51;;;;;;;4.93;3.42;;;7.20;77.30;;;;;;5077239;28;20086;-80
2022/12/08 03:20:21;;;;;;;4.75;3.40;;;7.20;77.30;;;;;;5059400;28;20067;-83
2022/12/08 03:22:49;;;;;;;4.53;3.45;;;7.20;77.30;;;;;;5059122;28;20028;-80
2022/12/08 03:25:18;;;;;;;4.43;3.25;;;7.20;77.30;;;;;;5058977;28;20028;-80
2022/12/08 03:27:44;;;;;;;3.80;3.08;;;7.20;77.30;;;;;;5059158;28;20044;-79
2022/12/08 03:30:10;;;;;;;4.30;3.58;;;7.20;77.30;;;;;;5058823;28;20021;-79
2022/12/08 03:32:54;;;;;;;4.38;3.60;;;7.20;77.30;;;;;;5075231;28;20024;-80
2022/12/08 03:35:24;;;;;;;3.83;3.33;;;7.20;77.30;;;;;;5075708;28;20062;-81
2022/12/08 03:37:50;;;;;;;4.43;3.30;;;7.20;77.30;;;;;;5059048;28;20032;-79
2022/12/08 03:40:19;;;;;;;4.88;3.42;;;7.20;77.30;;;;;;5075311;28;20389;-79
2022/12/08 03:42:45;;;;;;;4.60;3.65;;;7.20;77.30;;;;;;5058670;28;20113;-81
2022/12/08 03:45:11;;;;;;;3.67;3.10;;;7.20;77.30;;;;;;5058930;28;20060;-79
2022/12/08 03:47:36;;;;;;;4.35;3.60;;;7.20;77.30;;;;;;5059254;28;20033;-81
2022/12/08 03:50:03;;;;;;;4.57;3.63;;;7.20;77.30;;;;;;5076929;28;20558;-79
2022/12/08 03:52:28;;;;;;;4.80;3.80;;;7.20;77.30;;;;;;5058524;28;20028;-79
2022/12/08 03:54:54;;;;;;;4.28;3.22;;;7.20;77.30;;;;;;5059517;28;20342;-79
2022/12/08 03:57:20;;;;;;;3.47;3.17;;;7.20;77.30;;;;;;5075919;28;20426;-80
2022/12/08 03:59:46;;;;;;;4.15;3.47;;;7.20;77.30;;;;;;5076891;28;20457;-80
2022/12/08 04:02:12;;;;;;;4.13;3.28;;;7.20;77.30;;;;;;5041960;28;20120;-80
2022/12/08 04:04:37;;;;;;;4.00;3.28;;;7.20;77.30;;;;;;5058099;28;20049;-80
2022/12/08 04:07:03;;;;;;;4.53;3.40;;;7.20;77.30;;;;;;5074610;28;20040;-79
2022/12/08 04:09:30;;;;;;;4.70;3.03;;;7.30;77.30;;;;;;5058335;28;20062;-80
2022/12/08 04:11:56;;;;;;;3.35;2.88;;;7.20;77.30;;;;;;5076217;28;20031;-80
2022/12/08 04:14:21;;;;;;;3.60;2.92;;;7.30;77.30;;;;;;5074825;28;20037;-80
2022/12/08 04:16:47;;;;;;;3.35;2.72;;;7.20;77.30;;;;;;5058360;28;20489;-80
2022/12/08 04:19:14;;;;;;;3.97;3.15;;;7.30;77.30;;;;;;5074312;28;20102;-80
2022/12/08 04:21:39;;;;;;;3.25;2.70;;;7.30;77.30;;;;;;5074722;28;20139;-80
2022/12/08 04:24:05;;;;;;;3.33;2.72;;;7.30;77.30;;;;;;5057780;28;20086;-79
2022/12/08 04:26:31;;;;;;;2.95;2.50;;;7.20;77.30;;;;;;5074464;28;20148;-80
2022/12/08 04:28:57;;;;;;;3.55;2.70;;;7.30;77.30;;;;;;5057969;28;20060;-80
2022/12/08 04:31:22;;;;;;;3.13;2.83;;;7.30;77.30;;;;;;5040881;28;20033;-77
2022/12/08 04:33:48;;;;;;;3.65;2.83;;;7.30;77.30;;;;;;5058182;28;20043;-80
2022/12/08 04:36:14;;;;;;;3.17;2.60;;;7.30;77.30;;;;;;5074711;28;20036;-81
2022/12/08 04:38:40;;;;;;;3.65;2.70;;;7.30;77.30;;;;;;5074223;28;20025;-79
2022/12/08 04:41:06;;;;;;;3.40;2.70;;;7.30;78.00;;;;;;5057642;28;20442;-80
2022/12/08 04:43:32;;;;;;;3.35;2.70;;;7.30;77.30;;;;;;5074268;28;20029;-79
2022/12/08 04:45:57;;;;;;;3.33;2.63;;;7.30;77.30;;;;;;5057601;28;20135;-79
2022/12/08 04:48:24;;;;;;;2.83;2.40;;;7.30;77.30;;;;;;5057729;28;20055;-80
2022/12/08 04:50:50;;;;;;;3.08;2.40;;;7.30;77.30;;;;;;5041252;28;20532;-80
2022/12/08 04:53:16;;;;;;;3.05;2.55;;;7.30;77.30;;;;;;5040726;28;20032;-80
2022/12/08 04:55:43;;;;;;;3.45;2.78;;;7.30;77.30;;;;;;5076026;28;20436;-79
2022/12/08 04:58:12;;;;;;;3.85;2.40;;;7.30;77.30;;;;;;5074999;28;20493;-79
2022/12/08 05:00:38;;;;;;;2.70;2.50;;;7.30;77.30;;;;;;5075342;28;20028;-79
2022/12/08 05:03:04;;;;;;;3.03;2.58;;;7.30;77.30;;;;;;5074697;28;20081;-80
2022/12/08 05:05:30;;;;;;;3.45;2.50;;;7.30;77.30;;;;;;5076000;28;20040;-79
2022/12/08 05:07:55;;;;;;;2.95;2.40;;;7.30;77.30;;;;;;5057528;28;20041;-79
2022/12/08 05:10:21;;;;;;;2.78;2.22;;;7.30;77.30;;;;;;5057653;28;20079;-80
2022/12/08 05:12:47;;;;;;;2.75;2.45;;;7.30;77.30;;;;;;5074628;28;20372;-81
2022/12/08 05:15:13;;;;;;;2.70;2.28;;;7.30;77.30;;;;;;5040757;28;20380;-80
2022/12/08 05:17:39;;;;;;;2.58;2.38;;;7.30;77.30;;;;;;5040720;28;20500;-80
2022/12/08 05:20:05;;;;;;;2.60;2.33;;;7.30;77.30;;;;;;5074869;28;20024;-80
2022/12/08 05:22:31;;;;;;;2.75;2.40;;;7.30;77.30;;;;;;5056725;28;20028;-81
2022/12/08 05:24:57;;;;;;;2.30;2.10;;;7.30;77.30;;;;;;5040586;28;20047;-79
2022/12/08 05:27:23;;;;;;;2.25;2.05;;;7.30;77.40;;;;;;5074549;28;20042;-81
2022/12/08 05:29:49;;;;;;;2.30;2.10;;;7.30;77.30;;;;;;5057044;28;20036;-81
2022/12/08 05:32:15;;;;;;;2.50;2.30;;;7.30;77.30;;;;;;5056663;28;20056;-81
2022/12/08 05:34:41;;;;;;;2.33;2.10;;;7.30;77.40;;;;;;5073490;28;20036;-80
2022/12/08 05:37:07;;;;;;;2.38;2.17;;;7.30;77.40;;;;;;5056595;28;20040;-80
2022/12/08 05:39:33;;;;;;;2.50;2.22;;;7.30;77.30;;;;;;5056569;28;20036;-79
2022/12/08 05:41:58;;;;;;;2.22;2.03;;;7.30;77.30;;;;;;5056785;28;20037;-79
2022/12/08 05:44:25;;;;;;;2.53;2.22;;;7.30;77.30;;;;;;5040712;28;20040;-78
2022/12/08 05:46:51;;;;;;;2.50;2.30;;;7.30;77.30;;;;;;5039766;28;20039;-79
2022/12/08 05:49:17;;;;;;;2.08;1.95;;;7.30;77.30;;;;;;5040750;28;20530;-80
2022/12/08 05:51:43;;;;;;;2.85;2.42;;;7.30;77.30;;;;;;5073166;28;20127;-81
2022/12/08 05:54:09;;;;;;;2.20;2.00;;;7.30;77.40;;;;;;5073537;28;20033;-80
2022/12/08 05:56:35;;;;;;;2.30;2.10;;;7.30;77.30;;;;;;5056635;28;20032;-79
2022/12/08 05:59:04;;;;;;;2.58;2.38;;;7.30;77.30;;;;;;5073501;28;20047;-81
2022/12/08 06:01:30;;;;;;;2.55;2.22;;;7.30;77.30;;;;;;5057400;28;20450;-81
2022/12/08 06:03:58;;;;;;;2.58;1.95;;;7.30;77.30;;;;;;5056649;28;20453;-80
2022/12/08 06:06:24;;;;;;;2.20;2.00;;;7.30;77.30;;;;;;5040557;28;20134;-82
2022/12/08 06:08:50;;;;;;;2.47;2.20;;;7.30;77.30;;;;;;5040902;28;20044;-82
2022/12/08 06:11:27;;;;;;;2.38;2.17;;;7.30;77.30;;;;;;5074281;28;20024;-81
2022/12/08 06:13:55;;;;;;;1.90;1.80;;;7.30;77.40;;;;;;5056873;28;20033;-80
2022/12/08 06:16:21;;;;;;;2.00;1.80;;;7.30;77.30;;;;;;5056510;28;20040;-84
2022/12/08 06:18:48;;;;;;;2.17;1.80;;;7.30;77.30;;;;;;5073028;28;20039;-80
2022/12/08 06:21:14;;;;;;;1.80;1.70;;;7.30;77.30;;;;;;5056597;28;20540;-80
2022/12/08 06:23:40;;;;;;;1.83;1.73;;;7.30;77.30;;;;;;5073895;28;20025;-77
2022/12/08 06:26:12;;;;;;;1.90;1.77;;;7.30;77.30;;;;;;5073457;28;20453;-79
2022/12/08 06:28:40;;;;;;;1.80;1.70;;;7.30;77.30;;;;;;5039980;28;20032;-79
2022/12/08 06:31:18;;;;;;;2.05;1.80;;;7.30;77.30;;;;;;5039488;28;20032;-81
2022/12/08 06:33:44;;;;;;;1.80;1.70;;;7.30;77.40;;;;;;5055812;28;20028;-81
2022/12/08 06:36:12;;;;;;;1.90;1.70;;;7.30;77.30;;;;;;5073621;28;20056;-84
2022/12/08 06:38:38;;;;;;;1.70;1.60;;;7.30;77.40;;;;;;5073680;28;20405;-79
2022/12/08 06:41:04;;;;;;;1.60;1.50;;;7.30;77.30;;;;;;5056025;28;20028;-80
2022/12/08 06:43:31;;;;;;;1.95;1.52;;;7.30;77.30;;;;;;5039062;28;20051;-83
2022/12/08 06:45:57;;;;;;;1.70;1.60;;;7.30;77.40;;;;;;5039040;28;20104;-81
2022/12/08 06:48:22;;;;;;;1.40;1.40;;;7.30;77.30;;;;;;5056658;28;20075;-81
2022/12/08 06:50:48;;;;;;;1.60;1.50;;;7.30;77.30;;;;;;5056139;28;20039;-81
2022/12/08 06:53:14;;;;;;;1.60;1.50;;;7.30;77.40;;;;;;5039645;28;20033;-81
2022/12/08 06:55:45;;;;;;;1.85;1.75;;;7.30;77.40;;;;;;5056098;28;20024;-81
2022/12/08 06:58:11;;;;;;;2.47;1.60;;;7.30;77.40;;;;;;5055863;28;20037;-81
2022/12/08 07:00:38;;;;;;;1.55;1.45;;;7.30;77.40;;;;;;5055874;28;20036;-81
2022/12/08 07:03:03;;;;;;;1.60;1.50;;;7.20;77.30;;;;;;5072517;28;20031;-82
2022/12/08 07:05:29;;;;;;;1.70;1.60;;;7.30;77.40;;;;;;5073581;28;20041;-82
2022/12/08 07:07:55;;;;;;;1.88;1.40;;;7.30;77.40;;;;;;5055758;28;20078;-81
2022/12/08 07:10:21;;;;;;;1.67;1.58;;;7.30;77.40;;;;;;5039114;28;20033;-80
2022/12/08 07:12:46;;;;;;;1.40;1.30;;;7.30;77.40;;;;;;5056057;28;20039;-81
2022/12/08 07:15:12;;;;;;;2.92;1.48;;;7.30;77.40;;;;;;5055599;28;20033;-81
2022/12/08 07:17:38;;;;;;;2.08;1.40;;;7.20;77.40;;;;;;5039737;28;20416;-81
2022/12/08 07:20:04;;;;;;;1.60;1.50;;;7.30;77.40;;;;;;5072252;28;20476;-82
2022/12/08 07:22:30;;;;;;;1.48;1.38;;;7.30;77.50;;;;;;5055838;28;20024;-82
2022/12/08 07:24:56;;;;;;;1.67;1.50;;;7.30;77.50;;;;;;5055834;28;20362;-81
2022/12/08 07:27:21;;;;;;;1.65;1.50;;;7.30;77.40;;;;;;5071959;28;20039;-83
2022/12/08 07:29:47;;;;;;;1.60;1.50;;;7.30;77.40;;;;;;5055259;28;20064;-83
2022/12/08 07:32:13;;;;;;;1.67;1.50;;;7.20;77.30;;;;;;5055295;28;20029;-81
2022/12/08 07:34:38;;;;;;;1.60;1.50;;;7.30;77.40;;;;;;5055467;28;20036;-81
2022/12/08 07:37:04;;;;;;;1.52;1.42;;;7.30;77.40;;;;;;5072005;28;20032;-80
2022/12/08 07:39:30;;;;;;;1.35;1.35;;;7.30;77.50;;;;;;5055475;28;20071;-81
2022/12/08 07:41:55;;;;;;;1.60;1.50;;;7.20;77.40;;;;;;5055025;28;20397;-81
2022/12/08 07:44:21;;;;;;;1.55;1.45;;;7.30;77.40;;;;;;5055492;28;20037;-82
2022/12/08 07:46:47;;;;;;;1.67;1.55;;;7.30;77.40;;;;;;5072722;28;20323;-81
2022/12/08 07:49:12;;;;;;;1.20;1.20;;;7.20;77.40;;;;;;5055135;28;20111;-79
2022/12/08 07:51:38;;;;;;;1.60;1.50;;;7.20;77.40;;;;;;5073073;28;20039;-80
2022/12/08 07:54:04;;;;;;;1.50;1.40;;;7.20;77.40;;;;;;5073628;28;20044;-80
2022/12/08 07:56:30;;;;;;;1.50;1.40;;;7.20;77.40;;;;;;5075842;28;20036;-81
2022/12/08 07:58:56;;;;;;;1.48;1.40;;;7.20;77.40;;;;;;5075837;28;20029;-81
2022/12/08 08:01:21;;;;;;;1.50;1.40;;;7.20;77.40;;;;;;5059376;28;20056;-81
2022/12/08 08:03:47;;;;;;;1.50;1.40;;;7.20;77.40;;;;;;5075108;28;20055;-81
2022/12/08 08:06:13;;;;;;;1.65;1.55;;;7.20;77.50;;;;;;5058800;28;20365;-80
2022/12/08 08:08:39;;;;;;;1.48;1.38;;;7.20;77.40;;;;;;5059368;28;20373;-81
2022/12/08 08:11:08;;;;;;;1.50;1.40;;;7.20;77.40;;;;;;5058506;28;20086;-81
2022/12/08 08:13:34;;;;;;;1.48;1.38;;;7.20;77.40;;;;;;5075098;28;20028;-79
2022/12/08 08:16:08;;;;;;;1.40;1.30;;;7.20;77.40;;;;;;5076081;28;20081;-80
2022/12/08 08:18:35;;;;;;;1.40;1.30;;;7.20;77.50;;;;;;5076072;28;20477;-80
2022/12/08 08:21:01;;;;;;;1.23;1.23;;;7.20;77.40;;;;;;5075138;28;20111;-80
2022/12/08 08:23:27;;;;;;;1.60;1.50;;;7.20;77.40;;;;;;5075115;28;20047;-80
2022/12/08 08:25:53;;;;;;;1.30;1.30;;;7.20;77.40;;;;;;5058236;28;20041;-80
2022/12/08 08:28:20;;;;;;;1.60;1.50;;;7.20;77.50;;;;;;5074937;28;20125;-81
2022/12/08 08:30:46;;;;;;;1.60;1.50;;;7.20;77.40;;;;;;5075321;28;20462;-80
2022/12/08 08:33:12;;;;;;;1.45;1.35;;;7.20;77.50;;;;;;5041563;28;20040;-82
2022/12/08 08:35:38;;;;;;;1.52;1.42;;;7.20;77.50;;;;;;5041513;28;20036;-81
2022/12/08 08:38:04;;;;;;;1.60;1.50;;;7.20;77.50;;;;;;5058141;28;20020;-81
2022/12/08 08:40:30;;;;;;;1.50;1.40;;;7.20;77.40;;;;;;5075436;28;20064;-79
2022/12/08 08:42:56;;;;;;;1.73;1.63;;;7.20;77.40;;;;;;5058222;28;20484;-81
2022/12/08 08:45:21;;;;;;;1.30;1.20;;;7.20;77.50;;;;;;5058035;28;20036;-82
2022/12/08 08:47:47;;;;;;;1.40;1.30;;;7.20;77.40;;;;;;5058775;28;20063;-81
2022/12/08 08:50:13;;;;;;;1.42;1.40;;;7.20;77.50;;;;;;5041418;28;20032;-80
2022/12/08 08:52:40;;;;;;;1.38;1.30;;;7.20;77.50;;;;;;5074302;28;20040;-81
2022/12/08 08:55:06;;;;;;;1.20;1.20;;;7.20;77.50;;;;;;5075507;28;20028;-81
2022/12/08 08:57:31;;;;;;;1.40;1.30;;;7.20;77.50;;;;;;5058028;28;20497;-80
2022/12/08 08:59:57;;;;;;;1.30;1.30;;;7.20;77.50;;;;;;5041978;28;20043;-80
2022/12/08 09:02:23;;;;;;;1.38;1.27;;;7.20;77.50;;;;;;5074871;28;20059;-80
2022/12/08 09:04:49;;;;;;;1.40;1.30;;;7.20;77.50;;;;;;5056876;28;20049;-81
2022/12/08 09:07:15;;;;;;;1.50;1.40;;;7.20;77.50;;;;;;5057623;28;20485;-81
2022/12/08 09:09:41;;;;;;;1.30;1.20;;;7.20;77.50;;;;;;5075658;28;20094;-80
2022/12/08 09:12:07;;;;;;;1.40;1.30;;;7.10;77.50;;;;;;5041568;28;20449;-85
2022/12/08 09:14:33;;;;;;;1.58;1.48;;;7.20;77.50;;;;;;5057785;28;20116;-81
2022/12/08 09:16:59;;;;;;;1.20;1.20;;;7.20;77.50;;;;;;5074435;28;20090;-79
2022/12/08 09:19:25;;;;;;;1.40;1.40;;;7.20;77.50;;;;;;5073756;28;20028;-80
2022/12/08 09:21:51;;;;;;;1.50;1.40;;;7.20;77.50;;;;;;5057836;28;20478;-82
2022/12/08 09:24:16;;;;;;;1.30;1.20;;;7.20;77.50;;;;;;5057555;28;20453;-81
2022/12/08 09:26:44;;;;;;;1.23;1.23;;;7.20;77.50;;;;;;5057508;28;20066;-82
2022/12/08 09:29:10;;;;;;;1.10;1.10;;;7.20;77.50;;;;;;5057686;28;20042;-81
2022/12/08 09:31:37;;;;;;;1.13;1.13;;;7.20;77.50;;;;;;5074099;28;20458;-81
2022/12/08 09:34:03;;;;;;;1.20;1.20;;;7.20;77.50;;;;;;5057682;28;20025;-81
2022/12/08 09:36:29;;;;;;;1.50;1.40;;;7.20;77.50;;;;;;5057679;28;20036;-81
2022/12/08 09:38:55;;;;;;;1.40;1.30;;;7.20;77.50;;;;;;5057509;28;20029;-81
2022/12/08 09:41:26;;;;;;;1.63;1.52;;;7.20;77.50;;;;;;5074967;28;20034;-81
2022/12/08 09:43:58;;;;;;;1.42;1.40;;;7.20;77.60;;;;;;5075109;28;20029;-79
2022/12/08 09:46:28;;;;;;;1.42;1.23;;;7.20;77.50;;;;;;5057052;28;20119;-81
2022/12/08 09:48:56;;;;;;;1.50;1.40;;;7.20;77.50;;;;;;5057034;28;20033;-81
2022/12/08 09:51:24;;;;;;;1.90;1.70;;;7.20;77.50;;;;;;5073549;28;20052;-79
2022/12/08 09:54:16;;;;;;;1.50;1.40;;;7.20;77.60;;;;;;5073732;28;20025;-81
2022/12/08 09:56:42;;;;;;;1.50;1.40;;;7.20;77.60;;;;;;5074506;28;20080;-81
2022/12/08 09:59:08;;;;;;;1.70;1.60;;;7.20;77.50;;;;;;5057093;28;20036;-81
2022/12/08 10:01:40;;;;;;;1.73;1.63;;;7.20;77.50;;;;;;5074947;28;20398;-81
2022/12/08 10:04:44;;;;;;;1.40;1.30;;;7.20;77.50;;;;;;5056748;28;20048;-81
2022/12/08 10:07:15;;;;;;;1.40;1.30;;;7.20;77.60;;;;;;5072116;28;20044;-81
2022/12/08 10:09:47;;;;;;;1.27;1.25;;;7.20;77.50;;;;;;5073337;28;20040;-80
2022/12/08 10:12:40;;;;;;;1.60;1.50;;;7.20;77.50;;;;;;5073370;28;20028;-81
2022/12/08 10:15:25;;;;;;;2.17;1.40;;;7.20;77.60;;;;;;5073851;28;20033;-81
2022/12/08 10:17:53;;;;;;;1.50;1.40;;;7.20;77.50;;;;;;5074155;28;20029;-79
2022/12/08 10:20:22;;;;;;;1.40;1.30;;;7.20;77.50;;;;;;5074801;28;20051;-79
2022/12/08 10:23:12;;;;;;;1.73;1.40;;;7.20;77.50;;;;;;5056557;28;20020;-80
2022/12/08 10:26:03;;;;;;;1.63;1.52;;;7.20;77.60;;;;;;5073411;28;20078;-79
2022/12/08 10:28:30;;;;;;;1.50;1.40;;;7.20;77.60;;;;;;5057628;28;20066;-84
2022/12/08 10:30:56;;;;;;;1.60;1.50;;;7.20;77.50;;;;;;5057149;28;20025;-83
2022/12/08 10:33:22;;;;;;;1.20;1.20;;;7.20;77.60;;;;;;5057054;28;20035;-82
2022/12/08 10:35:57;;;;;;;1.65;1.55;;;7.20;77.60;;;;;;5040103;28;20339;-83
2022/12/08 10:38:33;;;;;;;1.48;1.38;;;7.20;77.60;;;;;;5057113;28;20025;-83
2022/12/08 10:41:19;;;;;;;1.60;1.50;;;7.20;77.60;;;;;;5072563;28;20029;-81
2022/12/08 10:43:58;;;;;;;1.60;1.50;;;7.20;77.70;;;;;;5056625;28;20028;-80
2022/12/08 10:46:26;;;;;;;1.58;1.48;;;7.20;77.60;;;;;;5074334;28;20036;-82
2022/12/08 10:48:55;;;;;;;1.40;1.30;;;7.20;77.60;;;;;;5056040;28;20067;-81
2022/12/08 10:51:37;;;;;;;1.33;1.33;;;7.20;77.60;;;;;;5073861;28;20033;-81
2022/12/08 10:54:04;;;;;;;1.60;1.50;;;7.30;77.70;;;;;;5056397;28;20577;-82
2022/12/08 10:56:31;;;;;;;1.42;1.33;;;7.30;77.60;;;;;;5073895;28;20064;-80
2022/12/08 10:59:26;;;;;;;1.42;1.33;;;7.20;77.60;;;;;;5055848;28;20468;-81
2022/12/08 11:01:54;;;;;;;1.70;1.60;;;7.20;77.60;;;;;;5060977;28;20041;-81
2022/12/08 11:04:39;;;;;;;1.48;1.38;;;7.30;77.60;;;;;;5055706;28;20481;-81
2022/12/08 11:07:10;;;;;;;1.40;1.30;;;7.30;77.60;;;;;;5074450;28;20025;-81
2022/12/08 11:09:46;;;;;;;1.58;1.48;;;7.30;77.60;;;;;;5072945;28;20544;-81
2022/12/08 11:12:20;;;;;;;1.50;1.40;;;7.30;77.60;;;;;;5073336;28;20030;-80
2022/12/08 11:14:49;;;;;;;1.77;1.67;;;7.30;77.60;;;;;;5058129;28;20029;-81
2022/12/08 11:17:26;;;;;;;1.25;1.25;;;7.30;77.60;;;;;;5040019;28;20055;-81
2022/12/08 11:19:59;;;;;;;1.50;1.40;;;7.30;77.70;;;;;;5056130;28;20032;-79
2022/12/08 11:22:41;;;;;;;1.65;1.55;;;7.30;77.60;;;;;;5073982;28;20039;-81
2022/12/08 11:25:06;;;;;;;1.70;1.60;;;7.30;77.70;;;;;;5073709;28;20034;-83
2022/12/08 11:27:37;;;;;;;1.60;1.50;;;7.30;77.60;;;;;;5072508;28;20044;-84
2022/12/08 11:30:24;;;;;;;1.50;1.40;;;7.30;77.60;;;;;;5077024;28;20027;-81
2022/12/08 11:33:00;;;;;;;1.67;1.58;;;7.30;77.70;;;;;;5076677;28;20032;-82
2022/12/08 11:35:28;;;;;;;1.52;1.42;;;7.30;77.60;;;;;;5060159;28;20037;-83
2022/12/08 11:38:09;;;;;;;1.60;1.50;;;7.30;77.60;;;;;;5059779;28;20036;-82
2022/12/08 11:40:37;;;;;;;1.85;1.58;;;7.30;77.70;;;;;;5076543;28;20024;-82
2022/12/08 11:43:06;;;;;;;1.70;1.60;;;7.30;77.60;;;;;;5059616;28;20039;-82
2022/12/08 11:45:34;;;;;;;1.85;1.75;;;7.30;77.60;;;;;;5076300;28;20037;-81
2022/12/08 11:48:14;;;;;;;1.95;1.83;;;7.40;77.70;;;;;;5077713;28;20024;-81
2022/12/08 11:50:49;;;;;;;1.63;1.52;;;7.40;77.70;;;;;;5077378;28;20108;-82
2022/12/08 11:53:42;;;;;;;2.05;1.85;;;7.40;77.60;;;;;;5059652;28;20025;-82
2022/12/08 11:56:17;;;;;;;1.80;1.70;;;7.40;77.60;;;;;;5059579;28;20115;-80
2022/12/08 11:58:52;;;;;;;1.50;1.40;;;7.40;77.60;;;;;;5059323;28;20032;-82
2022/12/08 12:01:23;;;;;;;1.80;1.70;;;7.40;77.60;;;;;;5042511;28;20044;-80
2022/12/08 12:04:10;;;;;;;1.92;1.70;;;7.40;77.60;;;;;;5075351;28;20048;-85
2022/12/08 12:07:13;;;;;;;1.77;1.67;;;7.40;77.60;;;;;;5076430;28;20028;-79
2022/12/08 12:09:57;;;;;;;1.90;1.80;;;7.40;77.60;;;;;;5042685;28;20450;-80
2022/12/08 12:12:44;;;;;;;1.63;1.48;;;7.40;77.50;;;;;;5059244;28;20040;-81
2022/12/08 12:15:24;;;;;;;2.05;1.77;;;7.40;77.60;;;;;;5076489;28;20028;-80
2022/12/08 12:18:17;;;;;;;2.05;1.70;;;7.40;77.60;;;;;;5075655;28;20071;-80
2022/12/08 12:21:00;;;;;;;1.75;1.65;;;7.40;77.60;;;;;;5042756;28;20079;-80
2022/12/08 12:23:38;;;;;;;2.15;1.80;;;7.50;77.70;;;;;;5076729;28;20047;-80
2022/12/08 12:26:16;;;;;;;1.80;1.70;;;7.40;77.60;;;;;;5041780;28;20043;-79
2022/12/08 12:28:51;;;;;;;2.35;1.95;;;7.40;77.60;;;;;;5041580;28;20032;-81
2022/12/08 12:31:18;;;;;;;;;;;7.50;77.70;;;;;;5058962;28;20026;-80
2022/12/08 12:33:45;;;;;;;1.50;1.40;;;7.40;77.60;;;;;;5042185;28;20428;-79
2022/12/08 12:36:13;;;;;;;1.70;1.60;;;7.50;77.50;;;;;;5075532;28;20037;-79
2022/12/08 12:39:02;;;;;;;1.60;1.50;;;7.50;77.80;;;;;;5076123;28;20024;-81
2022/12/08 12:41:48;;;;;;;1.90;1.80;;;7.40;77.60;;;;;;5058010;28;20120;-81
2022/12/08 12:44:14;;;;;;;1.80;1.70;;;7.40;77.60;;;;;;5075578;28;20112;-80
2022/12/08 12:46:53;;;;;;;1.90;1.80;;;7.50;77.60;;;;;;5074792;28;20405;-80
2022/12/08 12:49:42;;;;;;;1.90;1.80;;;7.50;77.70;;;;;;5058126;28;20473;-80
2022/12/08 12:52:22;;;;;;;2.17;1.98;;;7.50;77.70;;;;;;5075529;28;20033;-80
2022/12/08 12:54:48;;;;;;;1.85;1.70;;;7.50;77.70;;;;;;5076119;28;20048;-80
2022/12/08 12:57:19;;;;;;;2.03;1.83;;;7.50;77.60;;;;;;5074497;28;20485;-81
2022/12/08 12:59:53;;;;;;;1.75;1.65;;;7.50;77.60;;;;;;5074886;28;20091;-81
2022/12/08 13:02:19;;;;;;;1.85;1.73;;;7.50;77.70;;;;;;5075448;28;20031;-80
2022/12/08 13:04:55;;;;;;;1.75;1.58;;;7.50;77.60;;;;;;5073892;28;20040;-81
2022/12/08 13:07:27;;;;;;;1.60;1.50;;;7.50;77.60;;;;;;5075823;28;20078;-80
2022/12/08 13:10:22;;;;;;;1.70;1.60;;;7.50;77.60;;;;;;5075650;28;20028;-80
2022/12/08 13:13:04;;;;;;;1.65;1.55;;;7.50;77.60;;;;;;5034645;28;20073;-80
2022/12/08 13:15:36;;;;;;;1.60;1.42;;;7.50;77.60;;;;;;5074127;28;20036;-80
2022/12/08 13:18:04;;;;;;;1.50;1.40;;;7.50;77.60;;;;;;5073904;28;20067;-80
2022/12/08 13:20:38;;;;;;;1.65;1.50;;;7.50;77.60;;;;;;5075055;28;20159;-78